sensor_id;sensor_type;location;lat;lon;timestamp;temperature;humidity
3256;DHT22;1640;48.504;9.224;2022-12-04T00:00:23;2.60;0.80
3256;DHT22;1640;48.504;9.224;2022-12-04T00:02:52;2.60;99.90
3256;DHT22;1640;48.504;9.224;2022-12-04T00:05:19;2.60;99.90
3256;DHT22;1640;48.504;9.224;2022-12-04T00:07:47;2.60;99.90
3256;DHT22;1640;48.504;9.224;2022-12-04T00:10:14;2.50;99.90
3256;DHT22;1640;48.504;9.224;2022-12-04T00:12:43;2.50;99.90
3256;DHT22;1640;48.504;9.224;2022-12-04T00:15:11;2.40;99.90
3256;DHT22;1640;48.504;9.224;2022-12-04T00:17:38;2.30;99.90
3256;DHT22;1640;48.504;9.224;2022-12-04T00:20:07;2.30;99.90
3256;DHT22;1640;48.504;9.224;2022-12-04T00:22:34;2.40;99.90
3256;DHT22;1640;48.504;9.224;2022-12-04T00:25:02;2.40;99.90
3256;DHT22;1640;48.504;9.224;2022-12-04T00:27:29;2.30;99.90
3256;DHT22;1640;48.504;9.224;2022-12-04T00:29:58;2.30;99.90
3256;DHT22;1640;48.504;9.224;2022-12-04T00:32:25;2.20;99.90
3256;DHT22;1640;48.504;9.224;2022-12-04T00:34:53;2.30;99.90
3256;DHT22;1640;48.504;9.224;2022-12-04T00:37:20;2.30;99.90
3256;DHT22;1640;48.504;9.224;2022-12-04T00:39:48;2.20;99.90
3256;DHT22;1640;48.504;9.224;2022-12-04T00:42:15;2.20;99.90
3256;DHT22;1640;48.504;9.224;2022-12-04T00:44:42;2.30;99.90
3256;DHT22;1640;48.504;9.224;2022-12-04T00:47:11;2.30;99.90
3256;DHT22;1640;48.504;9.224;2022-12-04T00:49:39;2.30;99.90
3256;DHT22;1640;48.504;9.224;2022-12-04T00:52:06;2.30;99.90
3256;DHT22;1640;48.504;9.224;2022-12-04T00:54:33;2.30;99.90
3256;DHT22;1640;48.504;9.224;2022-12-04T00:57:01;2.30;99.90
3256;DHT22;1640;48.504;9.224;2022-12-04T00:59:28;2.40;99.90
3256;DHT22;1640;48.504;9.224;2022-12-04T01:01:56;2.40;99.90
3256;DHT22;1640;48.504;9.224;2022-12-04T01:04:25;2.40;99.90
3256;DHT22;1640;48.504;9.224;2022-12-04T01:06:52;2.40;99.90
3256;DHT22;1640;48.504;9.224;2022-12-04T01:09:19;2.40;99.90
3256;DHT22;1640;48.504;9.224;2022-12-04T01:11:47;2.40;99.90
3256;DHT22;1640;48.504;9.224;2022-12-04T01:14:14;2.40;99.90
3256;DHT22;1640;48.504;9.224;2022-12-04T01:16:42;2.40;99.90
3256;DHT22;1640;48.504;9.224;2022-12-04T01:19:10;2.50;99.90
3256;DHT22;1640;48.504;9.224;2022-12-04T01:21:40;2.50;0.70
3256;DHT22;1640;48.504;9.224;2022-12-04T01:24:07;2.40;0.90
3256;DHT22;1640;48.504;9.224;2022-12-04T01:26:35;2.40;99.90
3256;DHT22;1640;48.504;9.224;2022-12-04T01:29:02;2.40;99.90
3256;DHT22;1640;48.504;9.224;2022-12-04T01:31:30;2.30;99.90
3256;DHT22;1640;48.504;9.224;2022-12-04T01:33:58;2.30;99.90
3256;DHT22;1640;48.504;9.224;2022-12-04T01:36:26;2.40;99.90
3256;DHT22;1640;48.504;9.224;2022-12-04T01:38:55;2.40;99.90
3256;DHT22;1640;48.504;9.224;2022-12-04T01:41:25;2.40;99.90
3256;DHT22;1640;48.504;9.224;2022-12-04T01:44:10;2.50;99.90
3256;DHT22;1640;48.504;9.224;2022-12-04T01:46:38;2.50;99.90
3256;DHT22;1640;48.504;9.224;2022-12-04T01:49:08;2.50;99.90
3256;DHT22;1640;48.504;9.224;2022-12-04T01:51:42;2.40;99.90
3256;DHT22;1640;48.504;9.224;2022-12-04T01:54:16;2.40;99.90
3256;DHT22;1640;48.504;9.224;2022-12-04T01:56:48;2.40;99.90
3256;DHT22;1640;48.504;9.224;2022-12-04T01:59:20;2.50;99.90
3256;DHT22;1640;48.504;9.224;2022-12-04T02:01:52;2.60;99.90
3256;DHT22;1640;48.504;9.224;2022-12-04T02:04:22;2.60;99.90
3256;DHT22;1640;48.504;9.224;2022-12-04T02:06:50;2.50;99.90
3256;DHT22;1640;48.504;9.224;2022-12-04T02:09:19;2.50;99.90
3256;DHT22;1640;48.504;9.224;2022-12-04T02:11:51;2.50;99.90
3256;DHT22;1640;48.504;9.224;2022-12-04T02:14:30;2.60;99.90
3256;DHT22;1640;48.504;9.224;2022-12-04T02:17:06;2.50;99.90
3256;DHT22;1640;48.504;9.224;2022-12-04T02:19:52;2.40;99.90
3256;DHT22;1640;48.504;9.224;2022-12-04T02:22:35;2.40;99.90
3256;DHT22;1640;48.504;9.224;2022-12-04T02:25:16;2.40;99.90
3256;DHT22;1640;48.504;9.224;2022-12-04T02:28:05;2.40;99.90
3256;DHT22;1640;48.504;9.224;2022-12-04T02:30:38;2.30;99.90
3256;DHT22;1640;48.504;9.224;2022-12-04T02:33:13;2.30;99.90
3256;DHT22;1640;48.504;9.224;2022-12-04T02:35:46;2.30;99.90
3256;DHT22;1640;48.504;9.224;2022-12-04T02:38:18;2.40;99.90
3256;DHT22;1640;48.504;9.224;2022-12-04T02:40:52;2.40;99.90
3256;DHT22;1640;48.504;9.224;2022-12-04T02:43:23;2.40;99.90
3256;DHT22;1640;48.504;9.224;2022-12-04T02:45:57;2.40;99.90
3256;DHT22;1640;48.504;9.224;2022-12-04T02:48:27;2.40;99.90
3256;DHT22;1640;48.504;9.224;2022-12-04T02:50:59;2.40;99.90
3256;DHT22;1640;48.504;9.224;2022-12-04T02:53:32;2.40;99.90
3256;DHT22;1640;48.504;9.224;2022-12-04T02:56:04;2.30;99.90
3256;DHT22;1640;48.504;9.224;2022-12-04T02:58:38;2.20;99.90
3256;DHT22;1640;48.504;9.224;2022-12-04T03:01:10;2.20;99.90
3256;DHT22;1640;48.504;9.224;2022-12-04T03:03:49;2.30;99.90
3256;DHT22;1640;48.504;9.224;2022-12-04T03:06:19;2.30;99.90
3256;DHT22;1640;48.504;9.224;2022-12-04T03:08:51;2.30;99.90
3256;DHT22;1640;48.504;9.224;2022-12-04T03:11:21;2.30;99.90
3256;DHT22;1640;48.504;9.224;2022-12-04T03:13:53;2.30;99.90
3256;DHT22;1640;48.504;9.224;2022-12-04T03:16:24;2.30;99.90
3256;DHT22;1640;48.504;9.224;2022-12-04T03:18:55;2.30;99.90
3256;DHT22;1640;48.504;9.224;2022-12-04T03:21:28;2.30;99.90
3256;DHT22;1640;48.504;9.224;2022-12-04T03:24:00;2.30;99.90
3256;DHT22;1640;48.504;9.224;2022-12-04T03:26:32;2.30;99.90
3256;DHT22;1640;48.504;9.224;2022-12-04T03:29:08;2.30;99.90
3256;DHT22;1640;48.504;9.224;2022-12-04T03:31:41;2.30;99.90
3256;DHT22;1640;48.504;9.224;2022-12-04T03:34:12;2.20;99.90
3256;DHT22;1640;48.504;9.224;2022-12-04T03:36:46;2.20;99.90
3256;DHT22;1640;48.504;9.224;2022-12-04T03:39:18;2.20;99.90
3256;DHT22;1640;48.504;9.224;2022-12-04T03:41:55;2.20;99.90
3256;DHT22;1640;48.504;9.224;2022-12-04T03:44:29;2.20;99.90
3256;DHT22;1640;48.504;9.224;2022-12-04T03:47:03;2.10;99.90
3256;DHT22;1640;48.504;9.224;2022-12-04T03:49:37;2.20;99.90
3256;DHT22;1640;48.504;9.224;2022-12-04T03:52:11;2.20;99.90
3256;DHT22;1640;48.504;9.224;2022-12-04T03:54:43;2.20;99.90
3256;DHT22;1640;48.504;9.224;2022-12-04T03:57:13;2.20;99.90
3256;DHT22;1640;48.504;9.224;2022-12-04T03:59:47;2.20;99.90
3256;DHT22;1640;48.504;9.224;2022-12-04T04:02:20;2.20;99.90
3256;DHT22;1640;48.504;9.224;2022-12-04T04:04:51;2.20;99.90
3256;DHT22;1640;48.504;9.224;2022-12-04T04:07:21;2.20;99.90
3256;DHT22;1640;48.504;9.224;2022-12-04T04:09:53;2.30;99.90
3256;DHT22;1640;48.504;9.224;2022-12-04T04:12:25;2.30;99.90
3256;DHT22;1640;48.504;9.224;2022-12-04T04:14:59;2.40;99.90
3256;DHT22;1640;48.504;9.224;2022-12-04T04:17:46;2.40;99.90
3256;DHT22;1640;48.504;9.224;2022-12-04T04:20:33;2.50;99.90
3256;DHT22;1640;48.504;9.224;2022-12-04T04:23:21;2.50;99.90
3256;DHT22;1640;48.504;9.224;2022-12-04T04:26:07;2.50;99.90
3256;DHT22;1640;48.504;9.224;2022-12-04T04:28:37;2.40;99.90
3256;DHT22;1640;48.504;9.224;2022-12-04T04:31:11;2.40;99.90
3256;DHT22;1640;48.504;9.224;2022-12-04T04:33:47;2.50;99.90
3256;DHT22;1640;48.504;9.224;2022-12-04T04:36:20;2.50;99.90
3256;DHT22;1640;48.504;9.224;2022-12-04T04:38:58;2.40;99.90
3256;DHT22;1640;48.504;9.224;2022-12-04T04:41:33;2.40;99.90
3256;DHT22;1640;48.504;9.224;2022-12-04T04:44:11;2.40;99.90
3256;DHT22;1640;48.504;9.224;2022-12-04T04:46:46;2.40;99.90
3256;DHT22;1640;48.504;9.224;2022-12-04T04:49:15;2.40;99.90
3256;DHT22;1640;48.504;9.224;2022-12-04T04:51:43;2.30;99.90
3256;DHT22;1640;48.504;9.224;2022-12-04T04:54:13;2.30;99.90
3256;DHT22;1640;48.504;9.224;2022-12-04T04:56:43;2.30;99.90
3256;DHT22;1640;48.504;9.224;2022-12-04T04:59:11;2.30;99.90
3256;DHT22;1640;48.504;9.224;2022-12-04T05:01:42;2.40;99.90
3256;DHT22;1640;48.504;9.224;2022-12-04T05:04:10;2.40;99.90
3256;DHT22;1640;48.504;9.224;2022-12-04T05:06:37;2.30;99.90
3256;DHT22;1640;48.504;9.224;2022-12-04T05:09:05;2.30;99.90
3256;DHT22;1640;48.504;9.224;2022-12-04T05:11:32;2.40;99.90
3256;DHT22;1640;48.504;9.224;2022-12-04T05:14:00;2.40;99.90
3256;DHT22;1640;48.504;9.224;2022-12-04T05:16:27;2.40;99.90
3256;DHT22;1640;48.504;9.224;2022-12-04T05:18:56;2.40;0.50
3256;DHT22;1640;48.504;9.224;2022-12-04T05:21:40;2.40;1.20
3256;DHT22;1640;48.504;9.224;2022-12-04T05:24:08;2.50;99.90
3256;DHT22;1640;48.504;9.224;2022-12-04T05:26:36;2.50;99.90
3256;DHT22;1640;48.504;9.224;2022-12-04T05:29:03;2.50;99.90
3256;DHT22;1640;48.504;9.224;2022-12-04T05:31:30;2.50;99.90
3256;DHT22;1640;48.504;9.224;2022-12-04T05:33:59;2.50;99.90
3256;DHT22;1640;48.504;9.224;2022-12-04T05:36:28;2.40;99.90
3256;DHT22;1640;48.504;9.224;2022-12-04T05:38:55;2.40;99.90
3256;DHT22;1640;48.504;9.224;2022-12-04T05:41:23;2.40;99.90
3256;DHT22;1640;48.504;9.224;2022-12-04T05:43:51;2.40;99.90
3256;DHT22;1640;48.504;9.224;2022-12-04T05:46:19;2.30;99.90
3256;DHT22;1640;48.504;9.224;2022-12-04T05:48:46;2.30;99.90
3256;DHT22;1640;48.504;9.224;2022-12-04T05:51:15;2.30;99.90
3256;DHT22;1640;48.504;9.224;2022-12-04T05:53:42;2.30;99.90
3256;DHT22;1640;48.504;9.224;2022-12-04T05:56:10;2.40;99.90
3256;DHT22;1640;48.504;9.224;2022-12-04T05:58:37;2.40;99.90
3256;DHT22;1640;48.504;9.224;2022-12-04T06:01:09;2.40;99.90
3256;DHT22;1640;48.504;9.224;2022-12-04T06:03:37;2.40;99.90
3256;DHT22;1640;48.504;9.224;2022-12-04T06:06:10;2.40;99.90
3256;DHT22;1640;48.504;9.224;2022-12-04T06:08:39;2.40;99.90
3256;DHT22;1640;48.504;9.224;2022-12-04T06:11:11;2.40;99.90
3256;DHT22;1640;48.504;9.224;2022-12-04T06:13:40;2.40;99.90
3256;DHT22;1640;48.504;9.224;2022-12-04T06:16:11;2.40;99.90
3256;DHT22;1640;48.504;9.224;2022-12-04T06:18:39;2.40;99.90
3256;DHT22;1640;48.504;9.224;2022-12-04T06:21:07;2.40;99.90
3256;DHT22;1640;48.504;9.224;2022-12-04T06:23:34;2.30;99.90
3256;DHT22;1640;48.504;9.224;2022-12-04T06:26:05;2.30;99.90
3256;DHT22;1640;48.504;9.224;2022-12-04T06:28:33;2.20;99.90
3256;DHT22;1640;48.504;9.224;2022-12-04T06:31:02;2.20;99.90
3256;DHT22;1640;48.504;9.224;2022-12-04T06:33:30;2.30;99.90
3256;DHT22;1640;48.504;9.224;2022-12-04T06:35:59;2.30;99.90
3256;DHT22;1640;48.504;9.224;2022-12-04T06:38:26;2.20;99.90
3256;DHT22;1640;48.504;9.224;2022-12-04T06:40:54;2.20;99.90
3256;DHT22;1640;48.504;9.224;2022-12-04T06:43:23;2.20;99.90
3256;DHT22;1640;48.504;9.224;2022-12-04T06:45:59;2.30;99.90
3256;DHT22;1640;48.504;9.224;2022-12-04T06:48:27;2.30;99.90
3256;DHT22;1640;48.504;9.224;2022-12-04T06:50:58;2.30;99.90
3256;DHT22;1640;48.504;9.224;2022-12-04T06:53:26;2.30;99.90
3256;DHT22;1640;48.504;9.224;2022-12-04T06:55:56;2.40;99.90
3256;DHT22;1640;48.504;9.224;2022-12-04T06:58:26;2.30;99.90
3256;DHT22;1640;48.504;9.224;2022-12-04T07:00:54;2.30;99.90
3256;DHT22;1640;48.504;9.224;2022-12-04T07:03:23;2.30;99.90
3256;DHT22;1640;48.504;9.224;2022-12-04T07:05:51;2.30;99.90
3256;DHT22;1640;48.504;9.224;2022-12-04T07:08:18;2.20;99.90
3256;DHT22;1640;48.504;9.224;2022-12-04T07:10:46;2.30;99.90
3256;DHT22;1640;48.504;9.224;2022-12-04T07:13:13;2.30;99.90
3256;DHT22;1640;48.504;9.224;2022-12-04T07:15:42;2.30;99.90
3256;DHT22;1640;48.504;9.224;2022-12-04T07:18:09;2.30;99.90
3256;DHT22;1640;48.504;9.224;2022-12-04T07:20:39;2.30;99.90
3256;DHT22;1640;48.504;9.224;2022-12-04T07:23:06;2.40;99.90
3256;DHT22;1640;48.504;9.224;2022-12-04T07:25:38;2.40;99.90
3256;DHT22;1640;48.504;9.224;2022-12-04T07:28:05;2.40;99.90
3256;DHT22;1640;48.504;9.224;2022-12-04T07:30:33;2.40;99.90
3256;DHT22;1640;48.504;9.224;2022-12-04T07:33:04;2.40;99.90
3256;DHT22;1640;48.504;9.224;2022-12-04T07:35:32;2.40;99.90
3256;DHT22;1640;48.504;9.224;2022-12-04T07:37:59;2.40;99.90
3256;DHT22;1640;48.504;9.224;2022-12-04T07:40:26;2.40;99.90
3256;DHT22;1640;48.504;9.224;2022-12-04T07:42:54;2.40;99.90
3256;DHT22;1640;48.504;9.224;2022-12-04T07:45:21;2.40;99.90
3256;DHT22;1640;48.504;9.224;2022-12-04T07:47:49;2.40;99.90
3256;DHT22;1640;48.504;9.224;2022-12-04T07:50:17;2.40;99.90
3256;DHT22;1640;48.504;9.224;2022-12-04T07:52:45;2.50;99.90
3256;DHT22;1640;48.504;9.224;2022-12-04T07:55:12;2.50;99.90
3256;DHT22;1640;48.504;9.224;2022-12-04T07:57:40;2.50;99.90
3256;DHT22;1640;48.504;9.224;2022-12-04T08:00:09;2.60;99.90
3256;DHT22;1640;48.504;9.224;2022-12-04T08:02:36;2.50;99.90
3256;DHT22;1640;48.504;9.224;2022-12-04T08:05:04;2.50;99.90
3256;DHT22;1640;48.504;9.224;2022-12-04T08:07:33;2.60;99.90
3256;DHT22;1640;48.504;9.224;2022-12-04T08:10:01;2.60;99.90
3256;DHT22;1640;48.504;9.224;2022-12-04T08:12:30;2.60;99.90
3256;DHT22;1640;48.504;9.224;2022-12-04T08:14:57;2.60;99.90
3256;DHT22;1640;48.504;9.224;2022-12-04T08:17:25;2.70;99.90
3256;DHT22;1640;48.504;9.224;2022-12-04T08:19:52;2.70;99.90
3256;DHT22;1640;48.504;9.224;2022-12-04T08:22:20;2.70;99.90
3256;DHT22;1640;48.504;9.224;2022-12-04T08:24:49;2.70;99.90
3256;DHT22;1640;48.504;9.224;2022-12-04T08:27:16;2.80;99.90
3256;DHT22;1640;48.504;9.224;2022-12-04T08:29:44;2.80;99.90
3256;DHT22;1640;48.504;9.224;2022-12-04T08:32:11;2.90;99.90
3256;DHT22;1640;48.504;9.224;2022-12-04T08:34:39;2.90;99.90
3256;DHT22;1640;48.504;9.224;2022-12-04T08:37:06;3.00;99.90
3256;DHT22;1640;48.504;9.224;2022-12-04T08:39:34;3.00;0.50
3256;DHT22;1640;48.504;9.224;2022-12-04T08:42:03;3.10;4.50
3256;DHT22;1640;48.504;9.224;2022-12-04T08:44:30;3.10;9.60
3256;DHT22;1640;48.504;9.224;2022-12-04T08:46:58;3.10;10.90
3256;DHT22;1640;48.504;9.224;2022-12-04T08:49:25;3.00;11.40
3256;DHT22;1640;48.504;9.224;2022-12-04T08:51:53;3.00;10.90
3256;DHT22;1640;48.504;9.224;2022-12-04T08:54:20;3.00;4.70
3256;DHT22;1640;48.504;9.224;2022-12-04T08:56:47;3.00;1.80
3256;DHT22;1640;48.504;9.224;2022-12-04T08:59:16;2.90;2.00
3256;DHT22;1640;48.504;9.224;2022-12-04T09:01:44;2.90;1.70
3256;DHT22;1640;48.504;9.224;2022-12-04T09:04:11;2.90;1.50
3256;DHT22;1640;48.504;9.224;2022-12-04T09:06:38;3.00;1.70
3256;DHT22;1640;48.504;9.224;2022-12-04T09:09:06;3.10;3.50
3256;DHT22;1640;48.504;9.224;2022-12-04T09:11:34;3.00;7.10
3256;DHT22;1640;48.504;9.224;2022-12-04T09:14:02;3.00;5.20
3256;DHT22;1640;48.504;9.224;2022-12-04T09:16:31;3.00;3.10
3256;DHT22;1640;48.504;9.224;2022-12-04T09:18:58;3.00;2.40
3256;DHT22;1640;48.504;9.224;2022-12-04T09:21:26;3.10;6.90
3256;DHT22;1640;48.504;9.224;2022-12-04T09:23:54;3.10;7.60
3256;DHT22;1640;48.504;9.224;2022-12-04T09:26:23;3.10;1.70
3256;DHT22;1640;48.504;9.224;2022-12-04T09:28:51;3.10;4.30
3256;DHT22;1640;48.504;9.224;2022-12-04T09:31:20;3.20;3.80
3256;DHT22;1640;48.504;9.224;2022-12-04T09:33:50;3.20;10.10
3256;DHT22;1640;48.504;9.224;2022-12-04T09:36:19;3.20;7.40
3256;DHT22;1640;48.504;9.224;2022-12-04T09:38:50;3.20;13.00
3256;DHT22;1640;48.504;9.224;2022-12-04T09:41:33;3.20;7.50
3256;DHT22;1640;48.504;9.224;2022-12-04T09:44:10;3.20;9.10
3256;DHT22;1640;48.504;9.224;2022-12-04T09:46:51;3.20;6.70
3256;DHT22;1640;48.504;9.224;2022-12-04T09:49:26;3.20;6.20
3256;DHT22;1640;48.504;9.224;2022-12-04T09:51:58;3.10;9.10
3256;DHT22;1640;48.504;9.224;2022-12-04T09:54:30;3.20;11.00
3256;DHT22;1640;48.504;9.224;2022-12-04T09:57:04;3.00;3.90
3256;DHT22;1640;48.504;9.224;2022-12-04T09:59:35;3.00;99.90
3256;DHT22;1640;48.504;9.224;2022-12-04T10:02:19;3.00;99.90
3256;DHT22;1640;48.504;9.224;2022-12-04T10:04:49;3.00;99.90
3256;DHT22;1640;48.504;9.224;2022-12-04T10:07:21;3.00;99.90
3256;DHT22;1640;48.504;9.224;2022-12-04T10:09:56;3.10;99.90
3256;DHT22;1640;48.504;9.224;2022-12-04T10:12:35;3.10;99.90
3256;DHT22;1640;48.504;9.224;2022-12-04T10:15:15;3.20;99.90
3256;DHT22;1640;48.504;9.224;2022-12-04T10:18:08;3.20;99.90
3256;DHT22;1640;48.504;9.224;2022-12-04T10:20:56;3.20;99.90
3256;DHT22;1640;48.504;9.224;2022-12-04T10:23:36;3.20;99.90
3256;DHT22;1640;48.504;9.224;2022-12-04T10:26:12;3.20;99.90
3256;DHT22;1640;48.504;9.224;2022-12-04T10:28:44;3.20;99.90
3256;DHT22;1640;48.504;9.224;2022-12-04T10:31:14;3.20;99.90
3256;DHT22;1640;48.504;9.224;2022-12-04T10:33:44;3.30;99.90
3256;DHT22;1640;48.504;9.224;2022-12-04T10:36:17;3.30;2.30
3256;DHT22;1640;48.504;9.224;2022-12-04T10:38:47;3.20;2.10
3256;DHT22;1640;48.504;9.224;2022-12-04T10:41:20;3.10;99.90
3256;DHT22;1640;48.504;9.224;2022-12-04T10:43:51;3.10;99.90
3256;DHT22;1640;48.504;9.224;2022-12-04T10:46:23;3.10;99.90
3256;DHT22;1640;48.504;9.224;2022-12-04T10:48:53;3.20;99.90
3256;DHT22;1640;48.504;9.224;2022-12-04T10:51:22;3.10;99.90
3256;DHT22;1640;48.504;9.224;2022-12-04T10:53:50;3.10;99.90
3256;DHT22;1640;48.504;9.224;2022-12-04T10:56:19;3.10;99.90
3256;DHT22;1640;48.504;9.224;2022-12-04T10:58:55;3.20;99.90
3256;DHT22;1640;48.504;9.224;2022-12-04T11:01:23;3.20;99.90
3256;DHT22;1640;48.504;9.224;2022-12-04T11:03:56;3.20;99.90
3256;DHT22;1640;48.504;9.224;2022-12-04T11:06:27;3.20;99.90
3256;DHT22;1640;48.504;9.224;2022-12-04T11:08:55;3.20;99.90
3256;DHT22;1640;48.504;9.224;2022-12-04T11:11:25;3.20;99.90
3256;DHT22;1640;48.504;9.224;2022-12-04T11:14:14;3.20;99.90
3256;DHT22;1640;48.504;9.224;2022-12-04T11:16:48;3.20;99.90
3256;DHT22;1640;48.504;9.224;2022-12-04T11:19:27;3.30;99.90
3256;DHT22;1640;48.504;9.224;2022-12-04T11:22:02;3.20;99.90
3256;DHT22;1640;48.504;9.224;2022-12-04T11:24:52;3.20;99.90
3256;DHT22;1640;48.504;9.224;2022-12-04T11:27:24;3.40;99.90
3256;DHT22;1640;48.504;9.224;2022-12-04T11:29:53;3.50;99.90
3256;DHT22;1640;48.504;9.224;2022-12-04T11:32:23;3.60;99.90
3256;DHT22;1640;48.504;9.224;2022-12-04T11:34:54;3.60;99.90
3256;DHT22;1640;48.504;9.224;2022-12-04T11:37:29;3.60;99.90
3256;DHT22;1640;48.504;9.224;2022-12-04T11:40:16;3.60;99.90
3256;DHT22;1640;48.504;9.224;2022-12-04T11:42:57;3.70;99.90
3256;DHT22;1640;48.504;9.224;2022-12-04T11:45:25;3.80;99.90
3256;DHT22;1640;48.504;9.224;2022-12-04T11:48:00;3.70;99.90
3256;DHT22;1640;48.504;9.224;2022-12-04T11:50:35;3.70;99.90
3256;DHT22;1640;48.504;9.224;2022-12-04T11:53:14;3.70;99.90
3256;DHT22;1640;48.504;9.224;2022-12-04T11:55:51;3.70;99.90
3256;DHT22;1640;48.504;9.224;2022-12-04T11:58:43;3.70;99.90
3256;DHT22;1640;48.504;9.224;2022-12-04T12:01:23;3.60;99.90
3256;DHT22;1640;48.504;9.224;2022-12-04T12:04:07;3.60;99.90
3256;DHT22;1640;48.504;9.224;2022-12-04T12:06:50;3.50;99.90
3256;DHT22;1640;48.504;9.224;2022-12-04T12:09:27;3.50;99.90
3256;DHT22;1640;48.504;9.224;2022-12-04T12:12:04;3.50;99.90
3256;DHT22;1640;48.504;9.224;2022-12-04T12:17:58;3.40;99.90
3256;DHT22;1640;48.504;9.224;2022-12-04T12:20:39;3.50;99.90
3256;DHT22;1640;48.504;9.224;2022-12-04T12:26:10;3.50;99.90
3256;DHT22;1640;48.504;9.224;2022-12-04T12:28:53;3.50;99.90
3256;DHT22;1640;48.504;9.224;2022-12-04T12:31:42;3.50;99.90
3256;DHT22;1640;48.504;9.224;2022-12-04T12:34:17;3.40;99.90
3256;DHT22;1640;48.504;9.224;2022-12-04T12:36:49;3.40;99.90
3256;DHT22;1640;48.504;9.224;2022-12-04T12:39:21;3.40;99.90
3256;DHT22;1640;48.504;9.224;2022-12-04T12:42:04;3.50;99.90
3256;DHT22;1640;48.504;9.224;2022-12-04T12:44:47;3.50;99.90
3256;DHT22;1640;48.504;9.224;2022-12-04T12:47:28;3.50;99.90
3256;DHT22;1640;48.504;9.224;2022-12-04T12:50:05;3.40;99.90
3256;DHT22;1640;48.504;9.224;2022-12-04T12:52:50;3.40;99.90
3256;DHT22;1640;48.504;9.224;2022-12-04T12:55:32;3.40;99.90
3256;DHT22;1640;48.504;9.224;2022-12-04T12:58:18;3.40;99.90
3256;DHT22;1640;48.504;9.224;2022-12-04T13:00:53;3.40;99.90
3256;DHT22;1640;48.504;9.224;2022-12-04T13:03:29;3.40;99.90
3256;DHT22;1640;48.504;9.224;2022-12-04T13:06:08;3.50;99.90
3256;DHT22;1640;48.504;9.224;2022-12-04T13:08:54;3.50;99.90
3256;DHT22;1640;48.504;9.224;2022-12-04T13:11:25;3.60;99.90
3256;DHT22;1640;48.504;9.224;2022-12-04T13:13:58;3.60;99.90
3256;DHT22;1640;48.504;9.224;2022-12-04T13:16:33;3.50;99.90
3256;DHT22;1640;48.504;9.224;2022-12-04T13:19:17;3.60;99.90
3256;DHT22;1640;48.504;9.224;2022-12-04T13:21:56;3.60;99.90
3256;DHT22;1640;48.504;9.224;2022-12-04T13:27:38;3.60;99.90
3256;DHT22;1640;48.504;9.224;2022-12-04T13:30:16;3.60;99.90
3256;DHT22;1640;48.504;9.224;2022-12-04T13:33:09;3.50;99.90
3256;DHT22;1640;48.504;9.224;2022-12-04T13:35:54;3.30;99.90
3256;DHT22;1640;48.504;9.224;2022-12-04T13:38:34;3.30;99.90
3256;DHT22;1640;48.504;9.224;2022-12-04T13:41:08;3.20;99.90
3256;DHT22;1640;48.504;9.224;2022-12-04T13:43:44;3.20;99.90
3256;DHT22;1640;48.504;9.224;2022-12-04T13:46:33;3.30;99.90
3256;DHT22;1640;48.504;9.224;2022-12-04T13:49:24;3.40;99.90
3256;DHT22;1640;48.504;9.224;2022-12-04T13:52:19;3.30;99.90
3256;DHT22;1640;48.504;9.224;2022-12-04T13:54:56;3.30;99.90
3256;DHT22;1640;48.504;9.224;2022-12-04T13:57:30;3.30;99.90
3256;DHT22;1640;48.504;9.224;2022-12-04T14:00:24;3.20;99.90
3256;DHT22;1640;48.504;9.224;2022-12-04T14:03:05;3.20;99.90
3256;DHT22;1640;48.504;9.224;2022-12-04T14:05:43;3.20;99.90
3256;DHT22;1640;48.504;9.224;2022-12-04T14:08:21;3.30;99.90
3256;DHT22;1640;48.504;9.224;2022-12-04T14:11:04;3.40;99.90
3256;DHT22;1640;48.504;9.224;2022-12-04T14:13:45;3.40;99.90
3256;DHT22;1640;48.504;9.224;2022-12-04T14:16:23;3.50;99.90
3256;DHT22;1640;48.504;9.224;2022-12-04T14:19:21;3.50;99.90
3256;DHT22;1640;48.504;9.224;2022-12-04T14:21:54;3.50;99.90
3256;DHT22;1640;48.504;9.224;2022-12-04T14:24:38;3.40;99.90
3256;DHT22;1640;48.504;9.224;2022-12-04T14:27:33;3.40;99.90
3256;DHT22;1640;48.504;9.224;2022-12-04T14:30:32;3.50;99.90
3256;DHT22;1640;48.504;9.224;2022-12-04T14:33:14;3.50;99.90
3256;DHT22;1640;48.504;9.224;2022-12-04T14:36:00;3.50;99.90
3256;DHT22;1640;48.504;9.224;2022-12-04T14:38:31;3.50;99.90
3256;DHT22;1640;48.504;9.224;2022-12-04T14:41:29;3.50;99.90
3256;DHT22;1640;48.504;9.224;2022-12-04T14:44:22;3.50;99.90
3256;DHT22;1640;48.504;9.224;2022-12-04T14:47:22;3.40;99.90
3256;DHT22;1640;48.504;9.224;2022-12-04T14:50:31;3.40;99.90
3256;DHT22;1640;48.504;9.224;2022-12-04T14:53:34;3.50;99.90
3256;DHT22;1640;48.504;9.224;2022-12-04T14:56:51;3.50;99.90
3256;DHT22;1640;48.504;9.224;2022-12-04T14:59:47;3.50;99.90
3256;DHT22;1640;48.504;9.224;2022-12-04T15:02:53;3.40;99.90
3256;DHT22;1640;48.504;9.224;2022-12-04T15:05:36;3.40;99.90
3256;DHT22;1640;48.504;9.224;2022-12-04T15:08:08;3.40;99.90
3256;DHT22;1640;48.504;9.224;2022-12-04T15:10:54;3.40;99.90
3256;DHT22;1640;48.504;9.224;2022-12-04T15:13:41;3.30;99.90
3256;DHT22;1640;48.504;9.224;2022-12-04T15:19:15;3.30;99.90
3256;DHT22;1640;48.504;9.224;2022-12-04T15:21:52;3.20;99.90
3256;DHT22;1640;48.504;9.224;2022-12-04T15:24:23;3.20;99.90
3256;DHT22;1640;48.504;9.224;2022-12-04T15:27:31;3.20;99.90
3256;DHT22;1640;48.504;9.224;2022-12-04T15:30:04;3.20;99.90
3256;DHT22;1640;48.504;9.224;2022-12-04T15:32:49;3.10;99.90
3256;DHT22;1640;48.504;9.224;2022-12-04T15:35:24;3.10;99.90
3256;DHT22;1640;48.504;9.224;2022-12-04T15:37:59;3.10;99.90
3256;DHT22;1640;48.504;9.224;2022-12-04T15:40:31;3.10;99.90
3256;DHT22;1640;48.504;9.224;2022-12-04T15:43:13;3.00;99.90
3256;DHT22;1640;48.504;9.224;2022-12-04T15:45:43;3.00;99.90
3256;DHT22;1640;48.504;9.224;2022-12-04T15:48:22;3.00;99.90
3256;DHT22;1640;48.504;9.224;2022-12-04T15:50:55;3.00;99.90
3256;DHT22;1640;48.504;9.224;2022-12-04T15:53:26;3.00;99.90
3256;DHT22;1640;48.504;9.224;2022-12-04T15:56:02;3.10;99.90
3256;DHT22;1640;48.504;9.224;2022-12-04T15:58:39;3.10;99.90
3256;DHT22;1640;48.504;9.224;2022-12-04T16:01:09;3.10;99.90
3256;DHT22;1640;48.504;9.224;2022-12-04T16:03:48;3.00;99.90
3256;DHT22;1640;48.504;9.224;2022-12-04T16:06:18;2.90;99.90
3256;DHT22;1640;48.504;9.224;2022-12-04T16:08:49;2.90;99.90
3256;DHT22;1640;48.504;9.224;2022-12-04T16:11:27;3.00;99.90
3256;DHT22;1640;48.504;9.224;2022-12-04T16:14:14;3.10;99.90
3256;DHT22;1640;48.504;9.224;2022-12-04T16:16:44;3.10;99.90
3256;DHT22;1640;48.504;9.224;2022-12-04T16:19:28;3.10;99.90
3256;DHT22;1640;48.504;9.224;2022-12-04T16:22:12;3.00;99.90
3256;DHT22;1640;48.504;9.224;2022-12-04T16:24:47;2.90;99.90
3256;DHT22;1640;48.504;9.224;2022-12-04T16:27:21;2.90;99.90
3256;DHT22;1640;48.504;9.224;2022-12-04T16:29:51;2.90;99.90
3256;DHT22;1640;48.504;9.224;2022-12-04T16:32:28;2.90;99.90
3256;DHT22;1640;48.504;9.224;2022-12-04T16:34:58;2.90;99.90
3256;DHT22;1640;48.504;9.224;2022-12-04T16:37:37;2.80;99.90
3256;DHT22;1640;48.504;9.224;2022-12-04T16:40:07;2.80;99.90
3256;DHT22;1640;48.504;9.224;2022-12-04T16:42:44;2.80;99.90
3256;DHT22;1640;48.504;9.224;2022-12-04T16:45:24;2.80;99.90
3256;DHT22;1640;48.504;9.224;2022-12-04T16:47:57;2.80;99.90
3256;DHT22;1640;48.504;9.224;2022-12-04T16:50:28;2.80;99.90
3256;DHT22;1640;48.504;9.224;2022-12-04T16:53:02;2.90;99.90
3256;DHT22;1640;48.504;9.224;2022-12-04T16:55:48;2.90;99.90
3256;DHT22;1640;48.504;9.224;2022-12-04T16:58:17;3.00;99.90
3256;DHT22;1640;48.504;9.224;2022-12-04T17:00:53;3.00;99.90
3256;DHT22;1640;48.504;9.224;2022-12-04T17:03:24;3.10;99.90
3256;DHT22;1640;48.504;9.224;2022-12-04T17:05:52;3.10;99.90
3256;DHT22;1640;48.504;9.224;2022-12-04T17:08:20;3.20;99.90
3256;DHT22;1640;48.504;9.224;2022-12-04T17:10:48;3.20;99.90
3256;DHT22;1640;48.504;9.224;2022-12-04T17:13:16;3.20;99.90